Time;durP1;ratioP1;P1;durP2;ratioP2;P2;SDS_P1;SDS_P2;PMS_P1;PMS_P2;Temp;Humidity;BMP_temperature;BMP_pressure;BME280_temperature;BME280_humidity;BME280_pressure;Samples;Min_cycle;Max_cycle;Signal;HPM_P1;HPM_P2
2023/10/24 00:00:29;;;;;;;17.88;10.73;;;10.10;99.90;;;;;;4796050;29;20102;-58
2023/10/24 00:02:55;;;;;;;18.90;11.68;;;10.10;99.90;;;;;;4796675;29;20134;-58
2023/10/24 00:05:21;;;;;;;17.60;10.07;;;10.10;99.90;;;;;;4812759;29;20074;-58
2023/10/24 00:07:46;;;;;;;17.40;10.45;;;10.10;99.90;;;;;;4814501;29;20050;-59
2023/10/24 00:10:12;;;;;;;18.65;11.18;;;10.10;99.90;;;;;;4814298;29;20518;-58
2023/10/24 00:12:38;;;;;;;21.05;12.07;;;10.10;99.90;;;;;;4814193;29;20047;-59
2023/10/24 00:15:04;;;;;;;18.40;11.70;;;10.00;99.90;;;;;;4814285;29;20054;-58
2023/10/24 00:17:31;;;;;;;18.90;11.82;;;10.10;99.90;;;;;;4812469;29;20076;-58
2023/10/24 00:19:57;;;;;;;18.23;11.02;;;10.10;99.90;;;;;;4814561;29;20055;-59
2023/10/24 00:22:22;;;;;;;17.73;11.02;;;10.00;99.90;;;;;;4814075;29;20550;-58
2023/10/24 00:24:48;;;;;;;20.77;11.18;;;10.10;99.90;;;;;;4813592;29;20060;-58
2023/10/24 00:27:14;;;;;;;20.67;11.75;;;10.10;99.90;;;;;;4814295;29;20086;-58
2023/10/24 00:29:39;;;;;;;21.60;11.25;;;10.10;99.90;;;;;;4813849;29;20047;-58
2023/10/24 00:32:05;;;;;;;19.00;10.60;;;10.10;99.90;;;;;;4814082;29;20588;-59
2023/10/24 00:34:31;;;;;;;16.95;10.48;;;10.00;99.90;;;;;;4796511;29;20051;-58
2023/10/24 00:36:56;;;;;;;20.17;11.20;;;10.00;99.90;;;;;;4796104;29;20625;-58
2023/10/24 00:39:22;;;;;;;18.98;10.55;;;10.10;99.90;;;;;;4794944;29;20059;-59
2023/10/24 00:41:48;;;;;;;16.95;10.35;;;10.00;99.90;;;;;;4795943;29;20055;-59
2023/10/24 00:44:14;;;;;;;17.10;11.00;;;10.00;99.90;;;;;;4795917;29;20103;-58
2023/10/24 00:46:41;;;;;;;18.67;10.98;;;10.10;99.90;;;;;;4795557;29;20081;-58
2023/10/24 00:49:08;;;;;;;16.67;10.40;;;10.10;99.90;;;;;;4795683;29;20052;-58
2023/10/24 00:51:33;;;;;;;16.40;10.30;;;10.00;99.90;;;;;;4795430;29;20043;-59
2023/10/24 00:54:02;;;;;;;22.42;10.85;;;10.00;99.90;;;;;;4795740;29;20054;-58
2023/10/24 00:56:29;;;;;;;17.63;10.48;;;10.00;99.90;;;;;;4795113;29;20047;-58
2023/10/24 00:58:57;;;;;;;18.80;11.90;;;10.00;99.90;;;;;;4795579;29;20043;-58
2023/10/24 01:01:22;;;;;;;18.23;10.90;;;10.10;99.90;;;;;;4795656;29;20086;-58
2023/10/24 01:03:49;;;;;;;17.38;10.18;;;10.10;99.90;;;;;;4795193;29;20055;-59
2023/10/24 01:06:17;;;;;;;19.73;10.45;;;10.00;99.90;;;;;;4795449;29;20119;-59
2023/10/24 01:08:43;;;;;;;16.63;10.35;;;10.10;99.90;;;;;;4794910;30;20519;-59
2023/10/24 01:11:09;;;;;;;19.90;10.75;;;10.00;99.90;;;;;;4795734;29;20059;-59
2023/10/24 01:13:36;;;;;;;19.52;10.70;;;10.00;99.90;;;;;;4795118;29;20059;-60
2023/10/24 01:16:01;;;;;;;18.83;11.18;;;10.10;99.90;;;;;;4795397;29;20112;-61
2023/10/24 01:18:27;;;;;;;19.42;10.45;;;10.00;99.90;;;;;;4795419;29;20059;-62
2023/10/24 01:20:53;;;;;;;17.00;10.88;;;10.00;99.90;;;;;;4794959;29;20055;-61
2023/10/24 01:23:18;;;;;;;17.30;10.55;;;9.90;99.90;;;;;;4794891;29;20055;-62
2023/10/24 01:25:45;;;;;;;17.50;10.48;;;9.90;99.90;;;;;;4794695;29;20055;-62
2023/10/24 01:28:10;;;;;;;16.42;10.00;;;9.90;99.90;;;;;;4795251;29;20527;-61
2023/10/24 01:30:38;;;;;;;20.60;10.57;;;9.90;99.90;;;;;;4794657;29;20040;-61
2023/10/24 01:33:04;;;;;;;20.50;12.35;;;9.90;99.90;;;;;;4795038;29;20058;-61
2023/10/24 01:35:30;;;;;;;17.65;11.00;;;9.90;99.90;;;;;;4793573;30;20504;-62
2023/10/24 01:37:56;;;;;;;19.25;11.50;;;9.90;99.90;;;;;;4809812;29;20054;-62
2023/10/24 01:40:22;;;;;;;19.40;11.13;;;9.90;99.90;;;;;;4812830;29;20066;-62
2023/10/24 01:42:47;;;;;;;17.27;10.52;;;9.90;99.90;;;;;;4812721;29;20123;-62
2023/10/24 01:45:15;;;;;;;18.42;10.85;;;10.00;99.90;;;;;;4812957;29;20069;-61
2023/10/24 01:47:41;;;;;;;18.02;10.43;;;9.80;99.90;;;;;;4812378;29;20053;-62
2023/10/24 01:50:07;;;;;;;19.05;10.48;;;9.90;99.90;;;;;;4812773;29;20074;-61
2023/10/24 01:52:33;;;;;;;17.02;10.63;;;9.90;99.90;;;;;;4812216;29;20046;-61
2023/10/24 01:54:59;;;;;;;21.30;11.50;;;9.90;99.90;;;;;;4812334;29;20054;-61
2023/10/24 01:57:24;;;;;;;21.70;12.30;;;9.90;99.90;;;;;;4811046;29;20498;-61
2023/10/24 01:59:50;;;;;;;20.35;11.98;;;9.90;99.90;;;;;;4812297;29;20058;-61
2023/10/24 02:02:15;;;;;;;21.65;12.88;;;9.80;99.90;;;;;;4812561;29;20057;-60
2023/10/24 02:04:41;;;;;;;18.60;11.13;;;9.90;99.90;;;;;;4811379;29;20047;-61
2023/10/24 02:07:07;;;;;;;19.50;11.20;;;9.90;99.90;;;;;;4811943;29;20054;-61
2023/10/24 02:09:33;;;;;;;18.77;11.95;;;9.90;99.90;;;;;;4812156;29;20057;-61
2023/10/24 02:12:00;;;;;;;19.67;12.65;;;9.90;99.90;;;;;;4812276;29;20491;-61
2023/10/24 02:14:27;;;;;;;21.23;11.75;;;10.00;99.90;;;;;;4811928;29;20051;-61
2023/10/24 02:16:53;;;;;;;20.05;12.27;;;9.90;99.90;;;;;;4811849;29;20490;-62
2023/10/24 02:19:18;;;;;;;18.02;11.30;;;9.80;99.90;;;;;;4812045;29;20055;-61
2023/10/24 02:21:44;;;;;;;19.30;11.98;;;10.00;99.90;;;;;;4811588;29;20050;-62
2023/10/24 02:24:10;;;;;;;22.27;12.02;;;9.90;99.90;;;;;;4812301;29;20573;-62
2023/10/24 02:26:36;;;;;;;19.50;11.85;;;9.80;99.90;;;;;;4810272;29;20054;-61
2023/10/24 02:29:02;;;;;;;20.63;12.57;;;9.80;99.90;;;;;;4812127;29;20106;-61
2023/10/24 02:31:28;;;;;;;20.48;12.52;;;9.90;99.90;;;;;;4812107;29;20050;-61
2023/10/24 02:33:53;;;;;;;19.95;12.13;;;9.90;99.90;;;;;;4799084;29;20371;-61
2023/10/24 02:36:19;;;;;;;19.30;12.13;;;9.90;99.90;;;;;;4793878;29;20058;-61
2023/10/24 02:38:45;;;;;;;19.58;12.05;;;9.80;99.90;;;;;;4792005;29;20051;-61
2023/10/24 02:41:10;;;;;;;19.70;13.13;;;9.90;99.90;;;;;;4792627;30;20138;-61
2023/10/24 02:43:36;;;;;;;20.58;12.02;;;9.90;99.90;;;;;;4793568;29;20070;-62
2023/10/24 02:46:06;;;;;;;18.92;11.75;;;10.00;99.90;;;;;;4792422;30;20055;-61
2023/10/24 02:48:33;;;;;;;19.23;12.40;;;9.90;99.90;;;;;;4793754;29;20130;-60
2023/10/24 02:50:59;;;;;;;19.33;11.88;;;9.90;99.90;;;;;;4792474;29;20520;-61
2023/10/24 02:53:24;;;;;;;18.30;12.25;;;10.00;99.90;;;;;;4793379;29;20102;-61
2023/10/24 02:55:51;;;;;;;17.00;11.18;;;10.00;99.90;;;;;;4793145;29;20100;-61
2023/10/24 02:58:17;;;;;;;18.00;11.45;;;9.90;99.90;;;;;;4793514;29;20054;-61
2023/10/24 03:00:44;;;;;;;16.85;10.80;;;10.00;99.90;;;;;;4793234;30;20557;-61
2023/10/24 03:03:11;;;;;;;17.50;11.50;;;10.00;99.90;;;;;;4793335;29;20122;-62
2023/10/24 03:05:37;;;;;;;17.88;11.07;;;9.90;99.90;;;;;;4793658;29;20066;-61
2023/10/24 03:08:04;;;;;;;16.70;10.60;;;10.10;99.90;;;;;;4793397;29;20091;-61
2023/10/24 03:10:29;;;;;;;16.02;10.52;;;10.10;99.90;;;;;;4793318;29;20051;-61
2023/10/24 03:12:56;;;;;;;18.05;11.02;;;10.00;99.90;;;;;;4793062;29;20062;-61
2023/10/24 03:15:22;;;;;;;15.35;10.13;;;10.00;99.90;;;;;;4793142;29;20122;-61
2023/10/24 03:17:47;;;;;;;16.80;10.23;;;10.00;99.90;;;;;;4792813;29;20497;-61
2023/10/24 03:20:14;;;;;;;16.08;10.60;;;10.10;99.90;;;;;;4793593;29;20066;-61
2023/10/24 03:22:40;;;;;;;14.93;10.30;;;10.20;99.90;;;;;;4793323;29;20082;-62
2023/10/24 03:25:06;;;;;;;17.45;10.50;;;10.10;99.90;;;;;;4792968;29;20055;-61
2023/10/24 03:27:32;;;;;;;16.27;10.98;;;10.10;99.90;;;;;;4791954;30;20089;-61
2023/10/24 03:29:58;;;;;;;16.83;10.60;;;10.20;99.90;;;;;;4793310;29;20051;-60
2023/10/24 03:32:24;;;;;;;16.75;10.25;;;10.10;99.90;;;;;;4793325;29;20079;-61
2023/10/24 03:34:49;;;;;;;16.30;9.68;;;10.10;99.90;;;;;;4793043;29;20044;-60
2023/10/24 03:37:17;;;;;;;18.77;11.93;;;10.20;99.90;;;;;;4793405;29;20057;-60
2023/10/24 03:39:43;;;;;;;17.13;11.32;;;10.20;99.90;;;;;;4793024;29;20091;-60
2023/10/24 03:42:13;;;;;;;16.60;10.90;;;10.20;99.90;;;;;;4792991;29;20415;-60
2023/10/24 03:44:40;;;;;;;15.68;10.52;;;10.20;99.90;;;;;;4791587;29;20057;-60
2023/10/24 03:47:05;;;;;;;16.58;10.63;;;10.30;99.90;;;;;;4792684;29;20579;-60
2023/10/24 03:49:31;;;;;;;16.75;10.68;;;10.30;99.90;;;;;;4792048;30;20083;-60
2023/10/24 03:51:57;;;;;;;15.43;10.95;;;10.30;99.90;;;;;;4792992;29;20082;-60
2023/10/24 03:54:22;;;;;;;17.25;10.45;;;10.30;99.90;;;;;;4793151;29;20506;-60
2023/10/24 03:56:48;;;;;;;15.57;10.32;;;10.30;99.90;;;;;;4792885;29;20043;-60
2023/10/24 03:59:14;;;;;;;17.88;10.68;;;10.30;99.90;;;;;;4792733;29;20058;-60
2023/10/24 04:01:40;;;;;;;18.20;11.57;;;10.30;99.90;;;;;;4791903;29;20051;-61
2023/10/24 04:04:06;;;;;;;17.00;11.32;;;10.30;99.90;;;;;;4793028;29;20047;-61
2023/10/24 04:06:34;;;;;;;17.90;11.10;;;10.50;99.90;;;;;;4793171;29;20140;-60
2023/10/24 04:09:04;;;;;;;18.05;12.05;;;10.40;99.90;;;;;;4792639;29;20162;-60
2023/10/24 04:11:30;;;;;;;18.95;12.05;;;10.40;99.90;;;;;;4793284;29;20058;-60
2023/10/24 04:13:56;;;;;;;18.77;11.98;;;10.50;99.90;;;;;;4793278;29;20039;-59
2023/10/24 04:16:22;;;;;;;19.23;12.02;;;10.50;99.90;;;;;;4796314;29;20054;-59
2023/10/24 04:18:47;;;;;;;19.10;12.38;;;10.40;99.90;;;;;;4796076;29;20599;-59
2023/10/24 04:21:15;;;;;;;23.33;12.75;;;10.50;99.90;;;;;;4796196;29;20051;-59
2023/10/24 04:23:41;;;;;;;20.30;13.27;;;10.60;99.90;;;;;;4795946;29;20051;-59
2023/10/24 04:26:07;;;;;;;20.15;13.65;;;10.40;99.90;;;;;;4795462;29;20055;-58
2023/10/24 04:28:33;;;;;;;19.50;12.43;;;10.50;99.90;;;;;;4795849;29;20082;-63
2023/10/24 04:30:58;;;;;;;18.08;12.73;;;10.50;99.90;;;;;;4795888;29;20047;-59
2023/10/24 04:33:24;;;;;;;20.48;13.48;;;10.50;99.90;;;;;;4795718;29;20099;-59
2023/10/24 04:35:50;;;;;;;19.60;12.90;;;10.60;99.90;;;;;;4794881;30;20047;-59
2023/10/24 04:38:17;;;;;;;20.08;12.77;;;10.60;99.90;;;;;;4779389;30;20050;-59
2023/10/24 04:40:43;;;;;;;20.33;13.52;;;10.60;99.90;;;;;;4795705;29;20063;-59
2023/10/24 04:43:09;;;;;;;20.48;13.43;;;10.60;99.90;;;;;;4794702;29;20059;-58
2023/10/24 04:45:36;;;;;;;19.38;12.23;;;10.70;99.90;;;;;;4796214;29;20055;-59
2023/10/24 04:48:05;;;;;;;18.92;12.02;;;10.60;99.90;;;;;;4794264;30;20058;-58
2023/10/24 04:50:34;;;;;;;18.73;12.25;;;10.70;99.90;;;;;;4794470;30;20060;-58
2023/10/24 04:53:00;;;;;;;19.55;12.55;;;10.60;99.90;;;;;;4795460;29;20048;-58
2023/10/24 04:55:25;;;;;;;18.67;12.77;;;10.50;99.90;;;;;;4795179;29;20059;-59
2023/10/24 04:57:51;;;;;;;21.30;12.57;;;10.70;99.90;;;;;;4795490;29;20047;-60
2023/10/24 05:00:17;;;;;;;19.33;12.80;;;10.50;99.90;;;;;;4794865;29;20123;-60
2023/10/24 05:02:44;;;;;;;19.08;12.48;;;10.70;99.90;;;;;;4795812;29;20047;-59
2023/10/24 05:05:10;;;;;;;20.85;13.20;;;10.60;99.90;;;;;;4795360;29;20401;-59
2023/10/24 05:07:36;;;;;;;19.63;12.75;;;10.70;99.90;;;;;;4795265;29;20066;-60
2023/10/24 05:10:03;;;;;;;21.92;13.55;;;10.50;99.90;;;;;;4793990;30;20385;-60
2023/10/24 05:12:29;;;;;;;19.05;12.65;;;10.50;99.90;;;;;;4794990;29;20063;-60
2023/10/24 05:14:55;;;;;;;23.58;14.27;;;10.60;99.90;;;;;;4793850;30;20055;-60
2023/10/24 05:17:20;;;;;;;19.98;12.88;;;10.70;99.90;;;;;;4794857;29;20106;-59
2023/10/24 05:19:46;;;;;;;24.63;13.95;;;10.70;99.90;;;;;;4795243;29;20044;-60
2023/10/24 05:22:13;;;;;;;19.48;13.57;;;10.60;99.90;;;;;;4795025;29;20219;-59
2023/10/24 05:24:39;;;;;;;19.45;13.43;;;10.70;99.90;;;;;;4794681;29;20059;-59
2023/10/24 05:27:05;;;;;;;21.52;14.45;;;10.80;99.90;;;;;;4794221;29;20067;-59
2023/10/24 05:29:35;;;;;;;23.20;14.50;;;10.80;99.90;;;;;;4793584;30;20090;-59
2023/10/24 05:32:01;;;;;;;21.17;14.68;;;10.60;99.90;;;;;;4795013;29;20043;-59
2023/10/24 05:34:30;;;;;;;20.83;14.65;;;10.60;99.90;;;;;;4794439;29;20369;-59
2023/10/24 05:36:56;;;;;;;24.55;14.82;;;10.90;99.90;;;;;;4795374;29;20051;-59
2023/10/24 05:39:26;;;;;;;21.10;14.23;;;10.90;99.90;;;;;;4794199;29;20069;-58
2023/10/24 05:41:53;;;;;;;22.35;15.75;;;10.90;99.90;;;;;;4794807;29;20051;-59
2023/10/24 05:44:19;;;;;;;24.13;15.25;;;10.90;99.90;;;;;;4794506;29;20097;-59
2023/10/24 05:46:45;;;;;;;21.35;14.98;;;10.60;99.90;;;;;;4794474;29;20047;-58
2023/10/24 05:49:10;;;;;;;22.13;15.55;;;10.70;99.90;;;;;;4794542;29;20261;-58
2023/10/24 05:51:36;;;;;;;24.27;15.95;;;10.90;99.90;;;;;;4794080;29;20043;-59
2023/10/24 05:54:02;;;;;;;21.88;15.85;;;10.90;99.90;;;;;;4793064;29;20058;-59
2023/10/24 05:56:27;;;;;;;22.00;15.52;;;10.90;99.90;;;;;;4790593;29;20102;-58
2023/10/24 05:58:54;;;;;;;20.50;15.07;;;10.80;99.90;;;;;;4790821;29;20055;-58
2023/10/24 06:01:20;;;;;;;22.38;16.23;;;10.70;99.90;;;;;;4794381;29;20054;-59
2023/10/24 06:03:46;;;;;;;21.35;15.57;;;10.70;99.90;;;;;;4808680;29;20059;-58
2023/10/24 06:06:12;;;;;;;22.75;16.02;;;10.60;99.90;;;;;;4808161;29;20070;-58
2023/10/24 06:08:39;;;;;;;20.70;15.90;;;10.80;99.90;;;;;;4806241;29;20047;-58
2023/10/24 06:11:05;;;;;;;21.10;15.48;;;10.60;99.90;;;;;;4808535;29;20047;-58
2023/10/24 06:13:31;;;;;;;24.00;16.67;;;10.80;99.90;;;;;;4808206;29;20058;-58
2023/10/24 06:16:14;;;;;;;27.20;16.85;;;10.60;99.90;;;;;;4808344;29;20099;-58
2023/10/24 06:18:40;;;;;;;22.98;15.80;;;10.70;99.90;;;;;;4807924;29;20164;-59
2023/10/24 06:21:06;;;;;;;27.50;16.55;;;10.90;99.90;;;;;;4808052;29;20134;-57
2023/10/24 06:23:33;;;;;;;23.23;16.23;;;10.90;99.90;;;;;;4807075;29;20051;-58
2023/10/24 06:25:59;;;;;;;25.00;15.98;;;10.70;99.90;;;;;;4807601;29;20221;-58
2023/10/24 06:28:25;;;;;;;23.70;15.55;;;10.90;99.90;;;;;;4808510;29;20127;-58
2023/10/24 06:30:58;;;;;;;21.02;15.23;;;10.70;99.90;;;;;;4808025;29;20119;-58
2023/10/24 06:33:29;;;;;;;23.42;16.25;;;10.90;99.90;;;;;;4793781;29;20669;-58
2023/10/24 06:35:56;;;;;;;23.20;14.43;;;10.80;99.90;;;;;;4785805;30;20140;-58
2023/10/24 06:38:22;;;;;;;23.70;15.45;;;11.00;99.90;;;;;;4788447;29;20758;-58
2023/10/24 06:50:59;;;;;;;19.42;12.95;;;11.00;99.90;;;;;;5172236;24;20040;-48
2023/10/24 06:53:32;;;;;;;21.42;13.80;;;10.80;99.90;;;;;;5258841;24;20108;31
2023/10/24 06:56:00;;;;;;;18.90;12.40;;;10.80;99.90;;;;;;5362612;24;20507;-51
2023/10/24 06:58:25;;;;;;;18.60;12.73;;;10.80;99.90;;;;;;4786364;29;20047;-48
2023/10/24 07:00:51;;;;;;;16.70;11.82;;;10.80;99.90;;;;;;4767478;30;20159;-47
2023/10/24 07:03:17;;;;;;;18.30;11.63;;;11.00;99.90;;;;;;4771589;30;20566;-51
2023/10/24 07:05:49;;;;;;;17.75;11.45;;;10.80;99.90;;;;;;4784957;29;20039;-48
2023/10/24 07:08:14;;;;;;;16.88;11.07;;;11.00;99.90;;;;;;4785753;29;20411;-49
2023/10/24 07:10:40;;;;;;;16.83;10.65;;;10.90;99.90;;;;;;4784301;30;20126;-60
2023/10/24 07:13:06;;;;;;;16.80;11.18;;;10.80;99.90;;;;;;4785425;29;20047;-59
2023/10/24 07:15:31;;;;;;;13.98;10.00;;;10.90;99.90;;;;;;4785556;29;20044;-59
2023/10/24 07:17:57;;;;;;;14.52;9.93;;;10.80;99.90;;;;;;4785671;29;20638;-46
2023/10/24 07:20:23;;;;;;;16.08;10.25;;;10.80;99.90;;;;;;4785204;29;20113;-55
2023/10/24 07:22:48;;;;;;;17.08;10.65;;;10.80;99.90;;;;;;4784137;30;20055;-47
2023/10/24 07:25:14;;;;;;;18.02;11.55;;;10.90;99.90;;;;;;4785323;29;20096;-59
2023/10/24 07:27:40;;;;;;;15.27;9.80;;;11.00;99.90;;;;;;4784406;30;20059;-48
2023/10/24 07:30:09;;;;;;;15.80;10.20;;;11.00;99.90;;;;;;4785177;29;20130;-49
2023/10/24 07:32:35;;;;;;;14.35;10.02;;;10.80;99.90;;;;;;4785328;29;20507;-48
2023/10/24 07:35:01;;;;;;;16.05;9.50;;;10.90;99.90;;;;;;4785113;29;20039;-59
2023/10/24 07:37:28;;;;;;;15.60;10.55;;;10.90;99.90;;;;;;4785612;29;20043;-59
2023/10/24 07:39:54;;;;;;;17.50;10.60;;;11.00;99.90;;;;;;4783929;29;20051;-51
2023/10/24 07:42:20;;;;;;;15.60;10.02;;;10.90;99.90;;;;;;4783896;30;20052;-50
2023/10/24 07:44:46;;;;;;;15.30;10.02;;;11.00;99.90;;;;;;4785235;29;20043;-45
2023/10/24 07:47:11;;;;;;;17.02;10.55;;;11.00;99.90;;;;;;4784372;29;20408;-47
2023/10/24 07:49:37;;;;;;;15.70;10.18;;;10.80;99.90;;;;;;4786794;29;20043;-46
2023/10/24 07:52:03;;;;;;;18.90;10.27;;;11.00;99.90;;;;;;4788604;29;20051;-51
2023/10/24 07:54:30;;;;;;;16.98;9.68;;;10.90;99.90;;;;;;4788888;29;20058;-47
2023/10/24 07:56:56;;;;;;;15.45;9.85;;;10.90;99.90;;;;;;4773563;30;20056;-48
2023/10/24 07:59:21;;;;;;;16.58;10.57;;;10.90;99.90;;;;;;4766387;30;20049;-45
2023/10/24 08:01:47;;;;;;;16.63;10.45;;;11.00;99.90;;;;;;4758737;30;20058;-48
2023/10/24 08:04:13;;;;;;;20.15;11.25;;;11.00;99.90;;;;;;4768775;30;20504;-50
2023/10/24 08:06:38;;;;;;;18.15;10.50;;;10.90;99.90;;;;;;4768749;30;20046;-45
2023/10/24 08:09:04;;;;;;;19.15;9.98;;;10.90;99.90;;;;;;4769416;30;20179;-46
2023/10/24 08:11:30;;;;;;;17.98;10.73;;;10.80;99.90;;;;;;4770206;30;20044;-49
2023/10/24 08:13:56;;;;;;;18.50;11.20;;;11.00;99.90;;;;;;4767962;30;20296;-47
2023/10/24 08:16:21;;;;;;;17.02;10.73;;;10.80;99.90;;;;;;4771138;29;20341;-48
2023/10/24 08:18:47;;;;;;;18.50;10.50;;;11.00;99.90;;;;;;4770235;30;20058;-49
2023/10/24 08:21:13;;;;;;;20.25;11.05;;;10.90;99.90;;;;;;4769054;30;20497;-49
2023/10/24 08:23:38;;;;;;;19.20;10.60;;;10.80;99.90;;;;;;4770850;30;20139;-48
2023/10/24 08:26:04;;;;;;;17.13;10.48;;;10.80;99.90;;;;;;4771720;30;20046;-45
2023/10/24 08:28:31;;;;;;;17.75;11.38;;;10.90;99.90;;;;;;4772044;30;20042;-50
2023/10/24 08:30:57;;;;;;;19.80;11.88;;;10.90;99.90;;;;;;4771628;30;20370;-46
2023/10/24 08:33:23;;;;;;;18.15;10.95;;;11.10;99.90;;;;;;4771980;30;20050;-46
2023/10/24 08:35:49;;;;;;;18.35;11.27;;;11.00;99.90;;;;;;4771478;30;20040;-46
2023/10/24 08:38:15;;;;;;;20.38;11.27;;;11.00;99.90;;;;;;4770028;30;20055;-46
2023/10/24 08:40:40;;;;;;;21.55;11.70;;;11.00;99.90;;;;;;4771477;30;20044;-46
2023/10/24 08:43:08;;;;;;;21.63;11.18;;;11.00;99.90;;;;;;4771243;30;20067;-46
2023/10/24 08:45:35;;;;;;;19.33;11.55;;;11.00;99.90;;;;;;4771606;30;20048;-59
2023/10/24 08:48:05;;;;;;;20.08;12.27;;;11.10;99.90;;;;;;4771259;30;20389;-58
2023/10/24 08:50:31;;;;;;;19.05;11.73;;;10.90;99.90;;;;;;4771416;30;20107;-59
2023/10/24 08:52:57;;;;;;;22.17;12.48;;;10.90;99.90;;;;;;4771486;30;20059;-59
2023/10/24 08:55:24;;;;;;;20.33;11.82;;;10.90;99.90;;;;;;4771063;30;20112;-58
2023/10/24 08:57:52;;;;;;;19.63;12.25;;;11.10;99.90;;;;;;4770941;30;20064;-59
2023/10/24 09:00:18;;;;;;;19.73;12.02;;;11.00;99.90;;;;;;4770924;30;20060;-58
2023/10/24 09:02:45;;;;;;;21.20;12.27;;;10.90;99.90;;;;;;4771218;30;20044;-59
2023/10/24 09:05:12;;;;;;;21.80;12.48;;;10.90;99.90;;;;;;4771365;30;20370;-59
2023/10/24 09:07:38;;;;;;;19.88;12.00;;;10.90;99.90;;;;;;4770974;30;20448;-59
2023/10/24 09:10:05;;;;;;;20.05;12.05;;;11.10;99.90;;;;;;4771205;30;20052;-59
2023/10/24 09:12:31;;;;;;;20.85;12.45;;;11.10;99.90;;;;;;4769953;30;20105;-59
2023/10/24 09:14:58;;;;;;;21.08;12.75;;;11.00;99.90;;;;;;4771194;30;20051;-59
2023/10/24 09:17:24;;;;;;;20.23;12.05;;;11.10;99.90;;;;;;4769469;30;20069;-59
2023/10/24 09:19:50;;;;;;;19.17;12.15;;;11.00;99.90;;;;;;4770988;30;20083;-59
2023/10/24 09:22:17;;;;;;;19.60;12.32;;;11.10;99.90;;;;;;4754611;30;20052;-58
2023/10/24 09:24:46;;;;;;;19.83;11.60;;;11.10;99.90;;;;;;4770571;30;20051;-59
2023/10/24 09:27:16;;;;;;;18.30;11.63;;;11.10;99.90;;;;;;4770596;30;20055;-59
2023/10/24 09:29:42;;;;;;;18.92;11.93;;;11.00;99.90;;;;;;4769402;30;20245;-59
2023/10/24 09:32:15;;;;;;;18.40;11.02;;;11.20;99.90;;;;;;4770813;30;20101;-59
2023/10/24 09:34:47;;;;;;;21.60;12.13;;;11.10;99.90;;;;;;4770603;30;20044;-59
2023/10/24 09:37:13;;;;;;;23.00;13.80;;;11.00;99.90;;;;;;4770368;30;20048;-50
2023/10/24 09:40:00;;;;;;;21.42;13.05;;;11.10;99.90;;;;;;4770506;30;20048;-45
2023/10/24 09:42:30;;;;;;;23.90;11.90;;;11.00;99.90;;;;;;4770524;30;20093;-46
2023/10/24 09:45:01;;;;;;;19.90;12.15;;;11.10;99.90;;;;;;4770369;30;20059;-49
2023/10/24 09:47:27;;;;;;;23.55;12.73;;;11.00;99.90;;;;;;4769238;30;20628;-59
2023/10/24 09:49:54;;;;;;;20.40;12.70;;;10.90;99.90;;;;;;4768971;30;20063;-59
2023/10/24 09:52:22;;;;;;;23.25;14.10;;;10.90;99.90;;;;;;4770309;30;20202;-59
2023/10/24 09:54:50;;;;;;;22.55;14.20;;;11.00;99.90;;;;;;4769431;30;20055;-59
2023/10/24 09:57:21;;;;;;;19.00;12.98;;;10.90;99.90;;;;;;4769841;30;20095;-58
2023/10/24 09:59:55;;;;;;;21.05;12.95;;;10.90;99.90;;;;;;4770260;30;20044;-59
2023/10/24 10:02:23;;;;;;;19.60;12.18;;;10.90;99.90;;;;;;4769935;30;20039;-59
2023/10/24 10:04:50;;;;;;;21.08;13.52;;;10.90;99.90;;;;;;4770128;30;20051;-45
2023/10/24 10:07:17;;;;;;;20.25;13.65;;;11.00;99.90;;;;;;4770145;30;20087;-46
2023/10/24 10:09:46;;;;;;;21.85;13.82;;;10.90;99.90;;;;;;4770093;30;20461;-47
2023/10/24 10:12:18;;;;;;;21.65;13.27;;;10.90;99.90;;;;;;4769666;30;20119;-48
2023/10/24 10:15:02;;;;;;;23.92;14.07;;;11.00;99.90;;;;;;4770226;30;20079;-45
2023/10/24 10:17:46;;;;;;;24.77;13.70;;;11.00;99.90;;;;;;4769700;30;20055;-47
2023/10/24 10:20:50;;;;;;;21.75;14.07;;;11.00;99.90;;;;;;4769946;30;20052;-45
2023/10/24 10:23:40;;;;;;;21.02;12.13;;;11.00;99.90;;;;;;4778130;30;20058;-46
2023/10/24 10:26:23;;;;;;;21.75;12.90;;;11.10;99.90;;;;;;4769949;30;20050;-46
2023/10/24 10:29:05;;;;;;;22.67;13.65;;;11.10;99.90;;;;;;4769486;30;20048;-45
2023/10/24 10:31:51;;;;;;;22.70;14.02;;;11.00;99.90;;;;;;4769429;30;20549;-46
2023/10/24 10:34:16;;;;;;;20.80;12.60;;;11.10;99.90;;;;;;4769595;30;20101;-45
2023/10/24 10:36:54;;;;;;;24.10;13.23;;;11.10;99.90;;;;;;4769765;30;20532;-47
2023/10/24 10:39:20;;;;;;;23.65;13.80;;;11.00;99.90;;;;;;4769835;30;20070;-46
2023/10/24 10:41:46;;;;;;;21.30;12.75;;;11.10;99.90;;;;;;4769358;30;20488;-49
2023/10/24 10:44:41;;;;;;;21.77;13.98;;;11.10;99.90;;;;;;4769320;30;20050;-45
2023/10/24 10:47:11;;;;;;;20.42;12.50;;;11.00;99.90;;;;;;4769559;30;20059;-45
2023/10/24 10:49:47;;;;;;;21.55;12.00;;;11.00;99.90;;;;;;4769357;30;20520;-46
2023/10/24 10:52:41;;;;;;;18.85;11.95;;;11.10;99.90;;;;;;4769144;30;20059;-47
2023/10/24 10:55:35;;;;;;;19.30;11.70;;;11.10;99.90;;;;;;4769191;30;20126;-45
2023/10/24 10:58:11;;;;;;;17.38;10.93;;;11.10;99.90;;;;;;4768837;30;20064;-45
2023/10/24 11:00:59;;;;;;;19.25;12.10;;;11.00;99.90;;;;;;4769091;30;20051;-48
2023/10/24 11:03:42;;;;;;;21.00;12.85;;;11.10;99.90;;;;;;4769022;30;20535;-49
2023/10/24 11:06:14;;;;;;;19.83;11.73;;;11.20;99.90;;;;;;4769120;30;20044;-46
2023/10/24 11:08:41;;;;;;;;;;;11.30;99.90;;;;;;4769439;30;20058;-46
2023/10/24 11:11:09;;;;;;;22.13;12.65;;;11.40;99.90;;;;;;4769385;30;19976;-59
2023/10/24 11:13:39;;;;;;;21.73;12.90;;;11.30;99.90;;;;;;4767743;30;20087;-58
2023/10/24 11:16:07;;;;;;;22.65;12.95;;;11.50;99.90;;;;;;4769333;30;20382;-59
2023/10/24 11:18:34;;;;;;;22.10;13.45;;;11.50;99.90;;;;;;4769137;30;20066;-59
2023/10/24 11:21:05;;;;;;;20.98;13.30;;;11.40;99.90;;;;;;4769053;30;20059;-59
2023/10/24 11:23:32;;;;;;;22.15;13.52;;;11.40;99.90;;;;;;4767604;30;20051;-46
2023/10/24 11:25:59;;;;;;;19.80;12.50;;;11.50;99.90;;;;;;4772390;30;20485;-47
2023/10/24 11:28:27;;;;;;;21.08;12.57;;;11.50;99.90;;;;;;4772561;30;20051;-47
2023/10/24 11:30:56;;;;;;;22.27;13.45;;;11.40;99.90;;;;;;4772540;30;20058;-47
2023/10/24 11:33:23;;;;;;;22.20;13.55;;;11.40;99.90;;;;;;4772596;30;20051;-45
2023/10/24 11:35:49;;;;;;;21.40;13.73;;;11.40;99.90;;;;;;4772660;30;20129;-45
2023/10/24 11:38:14;;;;;;;21.92;13.60;;;11.40;99.90;;;;;;4772707;30;20056;-45
2023/10/24 11:40:41;;;;;;;23.98;14.15;;;11.50;99.90;;;;;;4772474;30;20405;-59
2023/10/24 11:43:08;;;;;;;20.33;12.95;;;11.50;99.90;;;;;;4772386;30;20052;-59
2023/10/24 11:45:37;;;;;;;20.90;13.90;;;11.60;99.90;;;;;;4771112;30;20489;-58
2023/10/24 11:48:04;;;;;;;22.38;13.82;;;11.70;99.90;;;;;;4772308;30;20044;-59
2023/10/24 11:50:44;;;;;;;22.13;13.75;;;11.70;99.90;;;;;;4772140;30;20126;-59
2023/10/24 11:53:11;;;;;;;21.50;13.68;;;11.70;99.90;;;;;;4772614;30;20054;-59
2023/10/24 11:55:37;;;;;;;19.95;13.27;;;11.70;99.90;;;;;;4772275;30;20048;-59
2023/10/24 11:58:08;;;;;;;21.30;13.73;;;11.60;99.90;;;;;;4770747;30;20064;-59
2023/10/24 12:00:37;;;;;;;21.10;13.68;;;11.60;99.90;;;;;;4771807;30;20089;-59
2023/10/24 12:03:07;;;;;;;19.98;13.35;;;11.60;99.90;;;;;;4772084;30;20443;-59
2023/10/24 12:05:33;;;;;;;21.10;13.45;;;11.60;99.90;;;;;;4770656;30;20059;-59
2023/10/24 12:08:00;;;;;;;20.90;13.82;;;11.60;99.90;;;;;;4772190;30;20136;-59
2023/10/24 12:10:27;;;;;;;20.73;13.40;;;11.60;99.90;;;;;;4770650;30;20059;-59
2023/10/24 12:13:00;;;;;;;24.23;13.75;;;11.60;99.90;;;;;;4772103;30;20040;-59
2023/10/24 12:15:27;;;;;;;21.52;13.98;;;11.60;99.90;;;;;;4771952;30;20052;-59
2023/10/24 12:17:53;;;;;;;22.10;13.80;;;11.50;99.90;;;;;;4771916;30;20044;-46
2023/10/24 12:20:22;;;;;;;18.73;13.13;;;11.60;99.90;;;;;;4771563;30;20047;-47
2023/10/24 12:22:48;;;;;;;20.13;13.63;;;11.70;99.90;;;;;;4771709;30;20046;-47
2023/10/24 12:25:16;;;;;;;19.40;13.32;;;11.60;99.90;;;;;;4771553;30;20507;-46
2023/10/24 12:27:41;;;;;;;20.05;13.35;;;11.60;99.90;;;;;;4771860;30;20177;-48
2023/10/24 12:30:08;;;;;;;20.40;13.63;;;11.70;99.90;;;;;;4771515;30;20114;-47
2023/10/24 12:32:33;;;;;;;21.38;13.35;;;11.60;99.90;;;;;;4772126;30;20056;-48
2023/10/24 12:34:59;;;;;;;20.67;14.23;;;11.70;99.90;;;;;;4771607;30;20048;-47
2023/10/24 12:37:25;;;;;;;21.98;13.73;;;11.70;99.90;;;;;;4771787;30;20075;-47
2023/10/24 12:39:53;;;;;;;19.58;12.93;;;11.60;99.90;;;;;;4771391;30;20127;-59